Terminal Aerodrome Forecast
Issued by NWS Rapid City, SD

Home | Current Version | Previous Version | Text Only | Print | Product List | Glossary On
Versions: 1 2 3 4 5 6 7 8 9 10 11 12 13 14
000
FTUS43 KUNR 111700
TAFRAP
TAF
KRAP 111732Z 1118/1218 02011KT P6SM SCT150
     FM112100 06009KT P6SM VCTS SCT060CB BKN150
     FM120000 10005KT P6SM VCTS BKN060CB
      TEMPO 1200/1204 2SM -TSRA BKN050CB
     FM120600 36010KT P6SM BKN100=

USA.gov is the U.S. government's official web portal to all federal, state and local government web resources and services.